• Join FlightAware (Why Join?)
  • Login
  • US Flag 
04:15AM EDT


 

Airport Tracker/Info


-or-


 

Live Flight TrackerFlight Track Log ✈ UAL3744 ✈ 23-Apr-2013 ✈ KIAD - KDFW

Flight Track Log - Related Links

Times and Time Zones

All times are in EDT time to prevent confusion due to time zone crossing. See the UAL3744 flight status page for this flight to view local times or setup timezone preferences in your user account.

Time Position Orientation Groundspeed Altitude Reporting Facility
EDT Latitude Longitude Course Direction KTS MPH feet Rate Location/Type
08:38AM 38.9500 -77.5000 256° West 168 193 1,500  Level Potomac TRACON
08:39AM 38.9333 -77.5833 256° West 229 264 2,900 1,440 Climbing Potomac TRACON
08:40AM 38.9200 -77.6942 261° West 259 298 5,100 2,160 Climbing Washington Center
08:41AM 38.9078 -77.7897 261° West 254 292 8,200 2,280 Climbing Washington Center
08:42AM 38.8958 -77.8747 260° West 266 306 9,700 1,320 Climbing Washington Center
08:43AM 38.8833 -77.9836 262° West 284 327 10,900 1,560 Climbing Washington Center
08:44AM 38.8664 -78.1031 260° West 325 374 12,900 1,920 Climbing Washington Center
08:45AM 38.8553 -78.2253 263° West 337 388 14,800 1,740 Climbing Washington Center
08:46AM 38.8525 -78.3558 268° West 360 414 16,400 1,620 Climbing Washington Center
08:47AM 38.8514 -78.4864 269° West 367 422 18,100 1,320 Climbing Washington Center
08:48AM 38.8478 -78.6331 268° West 372 428 19,100 1,320 Climbing Washington Center
08:49AM 38.8489 -78.7583 271° West 379 436 20,800 1,440 Climbing Washington Center
08:50AM 38.8472 -78.8969 269° West 384 442 22,000 1,200 Climbing Washington Center
08:51AM 38.8267 -79.0344 259° West 395 455 23,300 1,200 Climbing Washington Center
08:52AM 38.8017 -79.1772 257° West 400 460 24,400 1,080 Climbing Washington Center
08:53AM 38.7800 -79.3386 260° West 411 473 25,500 1,020 Climbing Washington Center
08:54AM 38.7547 -79.4811 257° West 417 480 26,500 1,020 Climbing Washington Center
08:55AM 38.7336 -79.6103 258° West 417 480 27,600 960 Climbing Washington Center
08:56AM 38.7081 -79.7528 257° West 417 480 28,500 900 Climbing Washington Center
08:57AM 38.6842 -79.8950 258° West 417 480 29,500 900 Climbing Washington Center
08:58AM 38.6575 -80.0531 258° West 417 480 30,400 960 Climbing Washington Center
08:59AM 38.6406 -80.1411 256° West 414 476 31,200 900 Climbing Indianapolis Center
09:00AM 38.6167 -80.2814 258° West 407 468 32,100 780 Climbing Indianapolis Center
09:01AM 38.5900 -80.4361 258° West 404 465 32,800 600 Climbing Indianapolis Center
09:02AM 38.5672 -80.5639 257° West 407 468 33,400 840 Climbing Indianapolis Center
09:03AM 38.5381 -80.7292 257° West 397 457 34,600 900 Climbing Indianapolis Center
09:04AM 38.5150 -80.8669 258° West 395 455 35,300 660 Climbing Indianapolis Center
09:05AM 38.4894 -81.0028 257° West 392 451 36,000 300 Climbing Indianapolis Center
09:06AM 38.4644 -81.1400 257° West 394 453 36,000  Level Indianapolis Center
09:07AM 38.4389 -81.2825 257° West 406 467 36,000  Level Indianapolis Center
09:08AM 38.4131 -81.4258 257° West 411 473 36,000  Level Indianapolis Center
09:09AM 38.3861 -81.5686 257° West 410 472 36,000  Level Indianapolis Center
09:10AM 38.3608 -81.7106 257° West 408 470 36,000  Level Indianapolis Center
09:11AM 38.3269 -81.8506 253° West 415 478 36,000  Level Indianapolis Center
09:12AM 38.2886 -81.9892 251° West 412 474 36,000  Level Indianapolis Center
09:13AM 38.2419 -82.1547 250° West 414 476 36,000  Level Indianapolis Center
09:14AM 38.2033 -82.2906 250° West 409 471 36,000  Level Indianapolis Center
09:15AM 38.1647 -82.4264 250° West 408 470 36,000  Level Indianapolis Center
09:16AM 38.1233 -82.5700 250° West 403 464 36,000  Level Indianapolis Center
09:17AM 38.0858 -82.7014 250° West 399 459 36,000  Level Indianapolis Center
09:18AM 38.0472 -82.8336 250° West 399 459 36,000  Level Indianapolis Center
09:19AM 38.0092 -82.9653 250° West 399 459 36,000  Level Indianapolis Center
09:20AM 37.9708 -83.0969 250° West 400 460 36,000  Level Indianapolis Center
09:21AM 37.9314 -83.2286 249° West 400 460 36,000  Level Indianapolis Center
09:22AM 37.8861 -83.3839 250° West 403 464 36,000  Level Indianapolis Center
09:24AM 37.8461 -83.5150 249° West 402 463 36,000  Level Indianapolis Center
09:25AM 37.8072 -83.6458 249° West 399 459 36,000  Level Indianapolis Center
09:26AM 37.7683 -83.7778 250° West 400 460 36,000  Level Indianapolis Center
09:27AM 37.7292 -83.9078 249° West 398 458 36,000  Level Indianapolis Center
09:28AM 37.6822 -84.0611 249° West 400 460 36,000  Level Indianapolis Center
09:29AM 37.6419 -84.1919 249° West 401 461 36,000  Level Indianapolis Center
09:30AM 37.6017 -84.3244 249° West 404 465 36,000  Level Indianapolis Center
09:31AM 37.5631 -84.4550 250° West 399 459 36,000  Level Indianapolis Center
09:32AM 37.5222 -84.5842 248° West 398 458 36,000  Level Indianapolis Center
09:33AM 37.4822 -84.7144 249° West 396 456 36,000  Level Indianapolis Center
09:34AM 37.4353 -84.8647 249° West 396 456 36,000  Level Indianapolis Center
09:35AM 37.3958 -84.9914 249° West 390 449 36,000  Level Indianapolis Center
09:36AM 37.3556 -85.1200 249° West 392 451 36,000  Level Indianapolis Center
09:37AM 37.3153 -85.2453 248° West 386 444 36,000  Level Indianapolis Center
09:38AM 37.2756 -85.3697 248° West 384 442 36,000  Level Indianapolis Center
09:39AM 37.2358 -85.4942 248° West 385 443 36,000  Level Indianapolis Center
09:40AM 37.1903 -85.6467 249° West 385 443 36,000  Level Memphis Center
09:41AM 37.1492 -85.7714 248° West 385 443 36,000  Level Memphis Center
09:42AM 37.1078 -85.8936 247° West 385 443 36,000  Level Memphis Center
09:43AM 37.0686 -86.0206 249° West 385 443 36,000  Level Memphis Center
09:44AM 37.0289 -86.1394 247° West 380 437 36,000  Level Memphis Center
09:45AM 36.9872 -86.2639 247° West 380 437 36,000  Level Memphis Center
09:46AM 36.9475 -86.3853 248° West 380 437 36,000  Level Memphis Center
09:47AM 36.9056 -86.5094 247° West 380 437 36,000  Level Memphis Center
09:48AM 36.8633 -86.6306 246° West 380 437 36,000  Level Memphis Center
09:49AM 36.8189 -86.7519 245° Southwest 380 437 36,000  Level Memphis Center
09:50AM 36.7744 -86.8731 245° Southwest 386 444 36,000  Level Memphis Center
09:51AM 36.7322 -86.9967 247° West 386 444 36,000  Level Memphis Center
09:52AM 36.6853 -87.1175 244° Southwest 386 444 36,000  Level Memphis Center
09:53AM 36.6464 -87.2278 246° West 386 444 36,000  Level Memphis Center
09:54AM 36.5994 -87.3511 245° Southwest 386 444 36,000  Level Memphis Center
09:55AM 36.5564 -87.4739 246° West 386 444 36,000  Level Memphis Center
09:56AM 36.5114 -87.5919 245° Southwest 386 444 36,000  Level Memphis Center
09:57AM 36.4639 -87.7147 244° Southwest 386 444 36,000  Level Memphis Center
09:58AM 36.4206 -87.8347 246° West 386 444 36,000  Level Memphis Center
09:59AM 36.3731 -87.9547 244° Southwest 386 444 36,000  Level Memphis Center
10:00AM 36.3333 -88.0694 247° West 372 428 36,000  Level Memphis Center
10:01AM 36.2894 -88.1811 244° Southwest 344 396 36,000  Level Memphis Center
10:02AM 36.2497 -88.2903 246° West 344 396 36,000  Level Memphis Center
10:03AM 36.2056 -88.4022 244° Southwest 349 402 36,000  Level Memphis Center
10:04AM 36.1636 -88.5111 245° Southwest 349 402 36,000  Level Memphis Center
10:05AM 36.1214 -88.6200 244° Southwest 349 402 36,000  Level Memphis Center
10:06AM 36.0789 -88.7261 244° Southwest 349 402 36,000  Level Memphis Center
10:07AM 36.0386 -88.8322 245° Southwest 349 402 36,000  Level Memphis Center
10:08AM 35.9961 -88.9383 244° Southwest 344 396 36,000  Level Memphis Center
10:09AM 35.9556 -89.0442 245° Southwest 344 396 36,000  Level Memphis Center
10:10AM 35.9189 -89.1369 244° Southwest 344 396 36,000  Level Memphis Center
10:11AM 35.8783 -89.2400 244° Southwest 344 396 36,000  Level Memphis Center
10:12AM 35.8375 -89.3456 245° Southwest 344 396 36,000  Level Memphis Center
10:13AM 35.7944 -89.4536 244° Southwest 344 396 36,000  Level Memphis Center
10:14AM 35.7494 -89.5642 243° Southwest 349 402 36,000  Level Memphis Center
10:15AM 35.7064 -89.6719 244° Southwest 355 409 36,000  Level Memphis Center
10:16AM 35.6653 -89.7975 248° West 360 414 36,000  Level Memphis Center
10:17AM 35.6178 -89.9153 244° Southwest 377 434 36,000  Level Memphis Center
10:18AM 35.5764 -90.0200 244° Southwest 377 434 36,000  Level Memphis Center
10:19AM 35.5308 -90.1375 245° Southwest 382 440 36,000  Level Memphis Center
10:20AM 35.4828 -90.2500 242° Southwest 376 433 36,000  Level Memphis Center
10:21AM 35.4369 -90.3672 244° Southwest 376 433 36,000  Level Memphis Center
10:22AM 35.3911 -90.4792 243° Southwest 376 433 36,000  Level Memphis Center
10:23AM 35.3431 -90.5914 242° Southwest 376 433 36,000  Level Memphis Center
10:24AM 35.2969 -90.7031 243° Southwest 371 427 36,000  Level Memphis Center
10:25AM 35.2528 -90.8122 244° Southwest 361 415 36,000  Level Memphis Center
10:26AM 35.2042 -90.9314 243° Southwest 361 415 36,000  Level Memphis Center
10:27AM 35.1578 -91.0453 244° Southwest 361 415 36,000  Level Memphis Center
10:28AM 35.1133 -91.1542 244° Southwest 361 415 36,000  Level Memphis Center
10:29AM 35.0689 -91.2603 243° Southwest 356 410 36,000  Level Memphis Center
10:30AM 35.0242 -91.3689 243° Southwest 356 410 36,000  Level Memphis Center
10:31AM 34.9775 -91.4697 241° Southwest 356 410 36,000  Level Memphis Center
10:32AM 34.9306 -91.5781 242° Southwest 356 410 36,000  Level Memphis Center
10:33AM 34.8878 -91.6861 244° Southwest 356 410 36,000  Level Memphis Center
10:34AM 34.8406 -91.7942 242° Southwest 361 415 36,000  Level Memphis Center
10:35AM 34.7933 -91.9047 243° Southwest 361 415 36,000  Level Memphis Center
10:36AM 34.7481 -92.0128 243° Southwest 361 415 36,000  Level Memphis Center
10:37AM 34.7050 -92.1203 244° Southwest 361 415 36,000  Level Memphis Center
10:38AM 34.6636 -92.2306 245° Southwest 361 415 36,000  Level Memphis Center
10:39AM 34.6347 -92.3436 253° West 356 410 36,000  Level Memphis Center
10:40AM 34.6036 -92.4614 252° West 356 410 36,000  Level Memphis Center
10:41AM 34.5703 -92.5792 251° West 370 426 36,000  Level Memphis Center
10:42AM 34.5436 -92.6794 252° West 383 441 36,000  Level Memphis Center
10:43AM 34.5072 -92.8244 253° West 396 456 36,000  Level Memphis Center
10:44AM 34.4714 -92.9544 252° West 410 472 36,000  Level Memphis Center
10:45AM 34.4353 -93.0844 251° West 410 472 36,000  Level Memphis Center
10:46AM 34.3989 -93.2167 252° West 415 478 36,000  Level Memphis Center
10:47AM 34.3644 -93.3439 252° West 415 478 36,000  Level Memphis Center
10:48AM 34.3303 -93.4683 252° West 408 470 36,000  Level Memphis Center
10:49AM 34.3122 -93.5517 255° West 387 445 36,000  Level Fort Worth Center
10:50AM 34.2783 -93.6761 252° West 375 432 36,000  Level Fort Worth Center
10:51AM 34.2444 -93.8008 252° West 380 437 36,000  Level Fort Worth Center
10:52AM 34.2103 -93.9203 251° West 385 443 36,000  Level Fort Worth Center
10:53AM 34.1761 -94.0422 251° West 385 443 36,000  Level Fort Worth Center
10:54AM 34.1625 -94.1631 262° West 380 437 36,000  Level Fort Worth Center
10:55AM 34.2011 -94.2772 292° West 356 410 36,000  Level Fort Worth Center
10:56AM 34.2411 -94.3839 294° West 356 410 36,000  Level Fort Worth Center
10:57AM 34.2856 -94.4953 296° West 356 410 36,000 -600 Level Fort Worth Center
10:58AM 34.3256 -94.6072 293° West 362 417 34,900 -1,440 Descending Fort Worth Center
10:59AM 34.3658 -94.7214 293° West 367 422 33,200 -1,740 Descending Fort Worth Center
11:00AM 34.3847 -94.8317 282° West 360 414 31,500 -1,140 Descending Fort Worth Center
11:01AM 34.3869 -94.9422 271° West 351 404 31,000 -300 Descending Fort Worth Center
11:02AM 34.3914 -95.0606 273° West 346 398 31,000 -360 Level Fort Worth Center
11:03AM 34.3894 -95.1814 269° West 359 413 30,300 -1,140 Descending Fort Worth Center
11:04AM 34.3953 -95.2919 274° West 352 405 28,800 -1,500 Descending Fort Worth Center
11:05AM 34.3428 -95.3811 235° Southwest 317 365 27,300 -1,500 Descending Fort Worth Center
11:06AM 34.2689 -95.4608 222° Southwest 326 375 25,800 -1,500 Descending Fort Worth Center
11:07AM 34.2011 -95.5328 221° Southwest 331 381 24,300 -900 Descending Fort Worth Center
11:08AM 34.1353 -95.6019 221° Southwest 331 381 24,000 -180 Descending Fort Worth Center
11:09AM 34.0694 -95.6733 222° Southwest 323 372 24,000  Level Fort Worth Center
11:10AM 34.0058 -95.7447 223° Southwest 310 357 24,000 -240 Level Fort Worth Center
11:11AM 33.9378 -95.8136 220° Southwest 316 364 23,600 -840 Descending Fort Worth Center
11:12AM 33.8719 -95.8825 221° Southwest 316 364 22,400 -1,200 Descending Fort Worth Center
11:13AM 33.8058 -95.9511 221° Southwest 316 364 21,200 -1,320 Descending Fort Worth Center
11:14AM 33.7419 -96.0222 223° Southwest 338 389 19,800 -1,560 Descending Fort Worth Center
11:15AM 33.6636 -96.1033 221° Southwest 338 389 18,100 -1,500 Descending Fort Worth Center
11:16AM 33.6017 -96.1664 220° Southwest 332 382 16,800 -1,500 Descending Fort Worth Center
11:17AM 33.5272 -96.2472 222° Southwest 332 382 15,100 -1,560 Descending Fort Worth Center
11:18AM 33.4694 -96.3153 225° Southwest 326 375 13,700 -1,500 Descending Fort Worth Center
11:19AM 33.4033 -96.3958 226° Southwest 321 369 12,100 -1,380 Descending Fort Worth Center
11:20AM 33.3475 -96.4636 225° Southwest 321 369 11,000 -600 Descending Fort Worth Center
11:21AM 33.2814 -96.5411 224° Southwest 316 364 11,000  Level Fort Worth Center
11:22AM 33.2294 -96.6039 225° Southwest 282 325 11,000  Level Fort Worth Center
11:23AM 33.1797 -96.6614 224° Southwest 277 319 11,000  Level Fort Worth Center
11:24AM 33.1217 -96.7314 225° Southwest 277 319 11,000  Level Fort Worth Center
11:25AM 33.0739 -96.7886 225° Southwest 277 319 11,000 60 Level Fort Worth Center
11:25AM 33.0333 -96.8167 210° Southwest 267 307 11,100 60 Climbing Dallas / Fort Worth TRACON
11:26AM 32.9833 -96.8833 228° Southwest 245 282 11,100 -180 Level Dallas / Fort Worth TRACON
11:27AM 32.9333 -96.9000 196° South 252 290 10,800 -840 Descending Dallas / Fort Worth TRACON
11:28AM 32.8500 -96.9000 180° South 252 290 9,500 -1,320 Descending Dallas / Fort Worth TRACON
11:29AM 32.8000 -96.9000 180° South 233 268 8,200 -1,200 Descending Dallas / Fort Worth TRACON
11:30AM 32.7333 -96.9000 180° South 212 244 7,100 -1,200 Descending Dallas / Fort Worth TRACON
11:31AM 32.6833 -96.9167 196° South 209 241 5,900 -1,020 Descending Dallas / Fort Worth TRACON
11:32AM 32.6167 -96.9333 192° South 225 259 5,100 -480 Descending Dallas / Fort Worth TRACON
11:33AM 32.6333 -97.0000 287° West 207 238 5,000 -540 Descending Dallas / Fort Worth TRACON
11:34AM 32.6833 -97.0167 344° North 225 259 4,100 -1,020 Descending Dallas / Fort Worth TRACON
11:35AM 32.7667 -97.0167 360° North 225 259 3,000 -1,080 Descending Dallas / Fort Worth TRACON
11:36AM 32.8000 -97.0167 360° North 180 207 2,000 -900 Descending Dallas / Fort Worth TRACON
11:37AM 32.8500 -97.0167 360° North 131 151 1,200 -720 Descending Dallas / Fort Worth TRACON